Time;durP1;ratioP1;P1;durP2;ratioP2;P2;SDS_P1;SDS_P2;PMS_P1;PMS_P2;Temp;Humidity;BMP_temperature;BMP_pressure;BME280_temperature;BME280_humidity;BME280_pressure;Samples;Min_cycle;Max_cycle;Signal;HPM_P1;HPM_P2
2021/11/28 00:00:25;;;;;;;44.70;27.95;;;5.90;96.10;;;;;;5093587;28;20028;-66
2021/11/28 00:02:51;;;;;;;40.80;27.80;;;5.90;96.10;;;;;;5093505;28;20077;-66
2021/11/28 00:05:19;;;;;;;39.03;26.70;;;5.90;96.20;;;;;;5093288;28;20024;-65
2021/11/28 00:08:04;;;;;;;41.35;26.70;;;5.90;96.20;;;;;;5093315;28;20062;-66
2021/11/28 00:13:25;;;;;;;41.03;28.23;;;5.90;96.10;;;;;;5093732;28;20027;-65
2021/11/28 00:15:51;;;;;;;41.25;26.48;;;5.90;96.10;;;;;;5093208;28;20430;-66
2021/11/28 00:18:16;;;;;;;39.75;27.20;;;5.80;96.20;;;;;;5093270;28;20059;-66
2021/11/28 00:20:42;;;;;;;40.00;27.02;;;5.80;96.40;;;;;;5093028;28;20057;-65
2021/11/28 00:23:08;;;;;;;41.40;27.65;;;5.80;96.10;;;;;;5093138;28;20360;-66
2021/11/28 00:25:33;;;;;;;43.10;27.67;;;5.80;96.10;;;;;;5093032;28;20034;-65
2021/11/28 00:27:59;;;;;;;42.92;28.27;;;5.70;96.10;;;;;;5092964;28;20035;-66
2021/11/28 00:30:27;;;;;;;39.97;27.25;;;5.70;96.00;;;;;;5092899;28;20028;-66
2021/11/28 00:32:53;;;;;;;38.22;26.80;;;5.80;96.10;;;;;;5091403;28;20538;-66
2021/11/28 00:35:19;;;;;;;42.00;27.83;;;5.70;96.10;;;;;;5093053;28;20050;-66
2021/11/28 00:37:45;;;;;;;41.65;26.75;;;5.70;96.10;;;;;;5093047;28;20103;-65
2021/11/28 00:40:12;;;;;;;39.60;25.98;;;5.70;96.10;;;;;;5093110;28;20628;-65
2021/11/28 00:42:38;;;;;;;41.88;27.63;;;5.60;96.00;;;;;;5091816;28;20508;-65
2021/11/28 00:45:05;;;;;;;41.45;27.02;;;5.70;96.10;;;;;;5093112;28;20062;-65
2021/11/28 00:47:31;;;;;;;39.60;26.88;;;5.70;96.20;;;;;;5092628;28;20385;-66
2021/11/28 00:52:32;;;;;;;44.17;28.88;;;5.60;96.20;;;;;;5092406;28;20108;-66
2021/11/28 00:54:58;;;;;;;42.88;28.40;;;5.60;96.20;;;;;;5092533;28;20070;-66
2021/11/28 00:57:24;;;;;;;41.80;28.65;;;5.60;96.10;;;;;;5092570;28;20024;-66
2021/11/28 00:59:51;;;;;;;43.38;29.70;;;5.60;96.20;;;;;;5092396;28;20028;-66
2021/11/28 01:02:17;;;;;;;46.40;30.05;;;5.60;96.20;;;;;;5092451;28;20454;-66
2021/11/28 01:04:44;;;;;;;47.50;32.33;;;5.60;96.10;;;;;;5092247;28;20028;-65
2021/11/28 01:07:10;;;;;;;49.90;31.60;;;5.50;96.10;;;;;;5092335;28;20031;-65
2021/11/28 01:09:35;;;;;;;53.17;32.97;;;5.50;96.10;;;;;;5092405;28;20024;-66
2021/11/28 01:12:02;;;;;;;51.97;33.78;;;5.50;96.20;;;;;;5092483;28;20024;-65
2021/11/28 01:14:27;;;;;;;53.45;33.80;;;5.40;96.30;;;;;;5090594;28;20035;-66
2021/11/28 01:16:53;;;;;;;51.97;33.45;;;5.40;96.20;;;;;;5092155;28;20028;-65
2021/11/28 01:19:19;;;;;;;52.13;33.05;;;5.40;96.20;;;;;;5091900;28;20031;-66
2021/11/28 01:21:53;;;;;;;46.08;29.60;;;5.40;96.20;;;;;;5091990;28;20032;-65
2021/11/28 01:24:19;;;;;;;47.15;31.00;;;5.40;96.30;;;;;;5091939;28;20024;-65
2021/11/28 01:26:44;;;;;;;46.85;30.20;;;5.40;96.50;;;;;;5092059;28;20035;-65
2021/11/28 01:29:11;;;;;;;46.20;30.02;;;5.40;96.50;;;;;;5092133;28;20457;-65
2021/11/28 01:31:36;;;;;;;46.83;31.48;;;5.40;96.40;;;;;;5092206;28;20366;-66
2021/11/28 01:34:02;;;;;;;49.15;31.40;;;5.40;96.40;;;;;;5090720;28;20028;-65
2021/11/28 01:36:28;;;;;;;47.72;31.08;;;5.40;96.40;;;;;;5091868;28;20470;-66
2021/11/28 01:38:53;;;;;;;49.78;31.85;;;5.40;96.60;;;;;;5091818;28;20081;-66
2021/11/28 01:41:19;;;;;;;49.08;30.67;;;5.40;96.50;;;;;;5091756;28;20099;-66
2021/11/28 01:43:47;;;;;;;46.05;29.92;;;5.40;96.50;;;;;;5091752;28;20032;-65
2021/11/28 01:46:13;;;;;;;46.08;30.40;;;5.40;96.50;;;;;;5091741;28;20362;-65
2021/11/28 01:48:38;;;;;;;46.30;29.80;;;5.30;96.50;;;;;;5091619;28;20017;-65
2021/11/28 01:51:05;;;;;;;46.95;30.58;;;5.30;96.50;;;;;;5091822;28;20016;-66
2021/11/28 01:53:31;;;;;;;45.10;31.08;;;5.30;96.70;;;;;;5090313;28;20055;-65
2021/11/28 01:55:57;;;;;;;48.05;30.27;;;5.40;96.80;;;;;;5091681;28;20244;-65
2021/11/28 01:58:24;;;;;;;48.40;31.30;;;5.40;96.70;;;;;;5091620;28;20021;-66
2021/11/28 02:00:56;;;;;;;48.72;31.13;;;5.30;96.70;;;;;;5090302;28;20054;-66
2021/11/28 02:03:22;;;;;;;49.63;31.23;;;5.40;96.50;;;;;;5091345;28;20033;-66
2021/11/28 02:05:51;;;;;;;48.10;31.45;;;5.30;96.50;;;;;;5091687;28;20031;-66
2021/11/28 02:08:18;;;;;;;44.67;29.17;;;5.30;96.50;;;;;;5091601;28;20035;-66
2021/11/28 02:10:44;;;;;;;44.55;30.40;;;5.30;96.50;;;;;;5091489;28;20042;-66
2021/11/28 02:13:10;;;;;;;45.03;29.83;;;5.20;96.50;;;;;;5091365;28;20026;-65
2021/11/28 02:15:36;;;;;;;39.90;26.67;;;5.20;96.40;;;;;;5091478;28;20016;-66
2021/11/28 02:18:02;;;;;;;43.65;29.20;;;5.20;96.40;;;;;;5091387;28;20032;-65
2021/11/28 02:20:30;;;;;;;42.80;27.58;;;5.10;96.60;;;;;;5091562;28;20028;-65
2021/11/28 02:22:57;;;;;;;45.92;29.80;;;5.10;96.30;;;;;;5091498;28;20024;-65
2021/11/28 02:25:25;;;;;;;40.40;26.77;;;5.10;96.50;;;;;;5091217;28;20028;-66
2021/11/28 02:27:53;;;;;;;38.90;25.75;;;5.00;96.40;;;;;;5095021;28;20028;-66
2021/11/28 02:30:19;;;;;;;41.47;26.60;;;5.00;96.50;;;;;;5095401;28;20028;-65
2021/11/28 02:32:46;;;;;;;43.45;27.80;;;5.00;96.50;;;;;;5095375;28;20078;-66
2021/11/28 02:35:14;;;;;;;43.33;29.02;;;5.00;96.50;;;;;;5095209;28;20107;-66
2021/11/28 02:37:44;;;;;;;39.63;26.60;;;5.00;96.60;;;;;;5095283;28;20066;-65
2021/11/28 02:40:15;;;;;;;43.80;28.35;;;5.00;96.60;;;;;;5095040;28;20359;-65
2021/11/28 02:42:42;;;;;;;40.88;27.55;;;5.00;96.60;;;;;;5095326;28;20388;-66
2021/11/28 02:45:10;;;;;;;42.25;28.73;;;5.00;96.60;;;;;;5095091;28;20356;-65
2021/11/28 02:47:37;;;;;;;44.03;29.58;;;5.00;96.80;;;;;;5095111;28;20475;-65
2021/11/28 02:50:04;;;;;;;41.28;27.05;;;5.00;96.60;;;;;;5095211;28;20031;-65
2021/11/28 02:52:33;;;;;;;40.90;28.00;;;4.90;96.50;;;;;;5094974;28;20356;-65
2021/11/28 02:54:59;;;;;;;43.25;29.92;;;4.90;96.70;;;;;;5094597;28;20055;-65
2021/11/28 02:57:25;;;;;;;42.55;28.75;;;4.90;96.70;;;;;;5094814;28;20027;-66
2021/11/28 02:59:51;;;;;;;43.50;28.52;;;4.90;96.50;;;;;;5094859;28;20032;-66
2021/11/28 03:02:17;;;;;;;41.17;27.38;;;4.90;96.50;;;;;;5094905;28;20542;-67
2021/11/28 03:04:43;;;;;;;37.35;25.17;;;4.90;96.60;;;;;;5094497;28;20034;-66
2021/11/28 03:07:09;;;;;;;40.10;25.88;;;4.90;96.60;;;;;;5094357;28;20024;-65
2021/11/28 03:09:35;;;;;;;37.88;24.90;;;4.80;96.50;;;;;;5094372;28;20048;-66
2021/11/28 03:12:01;;;;;;;38.83;24.83;;;4.80;96.50;;;;;;5094455;28;20098;-66
2021/11/28 03:14:26;;;;;;;38.50;23.98;;;4.80;96.40;;;;;;5094535;28;20107;-66
2021/11/28 03:16:53;;;;;;;39.67;25.38;;;4.70;96.30;;;;;;5094341;28;20035;-65
2021/11/28 03:19:19;;;;;;;37.85;24.58;;;4.70;96.40;;;;;;5093179;28;20030;-67
2021/11/28 03:21:45;;;;;;;33.65;21.65;;;4.60;96.40;;;;;;5092919;28;20115;-66
2021/11/28 03:24:11;;;;;;;36.10;22.63;;;4.60;96.40;;;;;;5094201;28;20028;-66
2021/11/28 03:26:39;;;;;;;33.70;21.67;;;4.50;96.50;;;;;;5094361;28;20024;-65
2021/11/28 03:29:11;;;;;;;33.67;21.65;;;4.50;96.50;;;;;;5094281;28;20023;-65
2021/11/28 03:31:40;;;;;;;30.38;20.30;;;4.50;96.50;;;;;;5094186;28;20425;-65
2021/11/28 03:34:08;;;;;;;50.42;20.73;;;4.40;96.50;;;;;;5094041;28;20028;-66
2021/11/28 03:36:38;;;;;;;40.90;20.48;;;4.40;96.40;;;;;;5093071;28;20459;-66
2021/11/28 03:39:06;;;;;;;74.65;23.50;;;4.40;96.40;;;;;;5093894;28;20024;-65
2021/11/28 03:41:32;;;;;;;44.63;20.73;;;4.40;96.50;;;;;;5093973;28;20033;-67
2021/11/28 03:43:59;;;;;;;101.10;25.33;;;4.30;96.40;;;;;;5093847;28;20471;-66
2021/11/28 03:46:28;;;;;;;58.63;23.45;;;4.30;96.40;;;;;;5093820;28;20016;-65
2021/11/28 03:48:57;;;;;;;43.80;22.33;;;4.30;96.50;;;;;;5093735;28;20020;-66
2021/11/28 03:51:23;;;;;;;89.82;23.52;;;4.20;96.60;;;;;;5093752;28;20024;-65
2021/11/28 03:53:49;;;;;;;112.03;24.15;;;4.20;96.60;;;;;;5093531;28;20351;-66
2021/11/28 03:56:16;;;;;;;97.05;22.90;;;4.20;96.40;;;;;;5093693;28;20024;-66
2021/11/28 03:58:42;;;;;;;58.67;20.70;;;4.10;96.30;;;;;;5093539;28;20082;-66
2021/11/28 04:01:10;;;;;;;94.68;21.48;;;4.10;96.00;;;;;;5093398;28;20043;-66
2021/11/28 04:03:36;;;;;;;98.70;20.38;;;4.00;95.90;;;;;;5093449;28;20030;-65
2021/11/28 04:06:02;;;;;;;225.57;26.83;;;3.90;95.90;;;;;;5093385;28;20020;-66
2021/11/28 04:08:28;;;;;;;141.50;22.65;;;3.80;96.00;;;;;;5093329;28;20020;-65
2021/11/28 04:10:53;;;;;;;60.55;17.75;;;3.70;95.70;;;;;;5093528;28;20038;-66
2021/11/28 04:13:19;;;;;;;50.95;17.23;;;3.60;95.70;;;;;;5093620;28;20314;-66
2021/11/28 04:15:45;;;;;;;80.40;19.17;;;3.50;95.50;;;;;;5093054;28;20119;-66
2021/11/28 04:18:12;;;;;;;107.45;18.30;;;3.30;95.40;;;;;;5093183;28;20442;-66
2021/11/28 04:20:39;;;;;;;67.03;16.90;;;3.20;95.50;;;;;;5093001;28;20020;-66
2021/11/28 04:23:05;;;;;;;50.65;17.13;;;3.20;95.60;;;;;;5093011;28;20035;-66
2021/11/28 04:25:31;;;;;;;59.80;17.10;;;3.20;95.60;;;;;;5092681;28;20062;-65
2021/11/28 04:27:57;;;;;;;63.58;17.40;;;3.10;95.70;;;;;;5092990;28;20024;-65
2021/11/28 04:30:23;;;;;;;318.13;33.47;;;3.00;95.60;;;;;;5092930;28;20370;-65
2021/11/28 04:32:48;;;;;;;108.10;20.05;;;2.90;95.70;;;;;;5092713;28;20114;-65
2021/11/28 04:35:14;;;;;;;90.78;18.55;;;2.90;95.90;;;;;;5092876;28;20028;-65
2021/11/28 04:37:40;;;;;;;196.45;26.50;;;2.80;96.20;;;;;;5092812;28;20048;-65
2021/11/28 04:40:08;;;;;;;77.50;20.30;;;2.80;96.30;;;;;;5092710;28;20071;-67
2021/11/28 04:42:34;;;;;;;235.52;32.05;;;2.70;96.30;;;;;;5092752;28;20482;-66
2021/11/28 04:45:00;;;;;;;214.15;27.65;;;2.70;96.20;;;;;;5092668;28;20028;-67
2021/11/28 04:47:26;;;;;;;71.57;19.63;;;2.70;96.30;;;;;;5092713;28;20085;-66
2021/11/28 04:49:52;;;;;;;52.97;18.20;;;2.60;96.40;;;;;;5090553;28;20028;-66
2021/11/28 04:52:18;;;;;;;91.43;20.52;;;2.60;96.60;;;;;;5092537;28;20032;-66
2021/11/28 04:54:44;;;;;;;103.13;21.45;;;2.60;96.50;;;;;;5092432;28;20048;-66
2021/11/28 04:57:10;;;;;;;78.50;20.05;;;2.50;96.30;;;;;;5091210;28;20024;-65
2021/11/28 04:59:35;;;;;;;49.38;17.55;;;2.50;95.90;;;;;;5092319;28;20161;-66
2021/11/28 05:02:01;;;;;;;51.00;17.15;;;2.50;96.00;;;;;;5092259;28;20031;-66
2021/11/28 05:04:27;;;;;;;90.07;19.40;;;2.30;96.20;;;;;;5092331;28;20039;-66
2021/11/28 05:06:53;;;;;;;59.13;17.42;;;2.30;96.30;;;;;;5092527;28;20424;-66
2021/11/28 05:09:20;;;;;;;131.35;20.73;;;2.30;96.30;;;;;;5092278;28;20016;-66
2021/11/28 05:11:46;;;;;;;54.88;16.83;;;2.30;96.30;;;;;;5092424;28;20533;-66
2021/11/28 05:14:11;;;;;;;83.47;17.73;;;2.20;96.50;;;;;;5092126;28;20040;-65
2021/11/28 05:16:38;;;;;;;46.15;15.00;;;2.30;96.30;;;;;;5092088;28;20073;-66
2021/11/28 05:19:04;;;;;;;50.75;13.98;;;2.30;96.30;;;;;;5092163;28;20028;-66
2021/11/28 05:21:30;;;;;;;48.47;14.10;;;2.20;96.40;;;;;;5092013;28;20028;-65
2021/11/28 05:23:56;;;;;;;44.55;13.60;;;2.20;96.70;;;;;;5092060;28;20031;-66
2021/11/28 05:26:22;;;;;;;47.25;14.65;;;2.20;96.80;;;;;;5091870;28;20024;-67
2021/11/28 05:28:48;;;;;;;53.50;14.30;;;2.20;96.80;;;;;;5091812;28;20414;-65
2021/11/28 05:31:17;;;;;;;144.35;21.95;;;2.20;96.80;;;;;;5091769;28;20098;-64
2021/11/28 05:33:48;;;;;;;55.53;15.90;;;2.20;96.80;;;;;;5091886;28;20073;-66
2021/11/28 05:36:14;;;;;;;60.50;16.58;;;2.20;97.30;;;;;;5091920;28;20074;-65
2021/11/28 05:38:40;;;;;;;158.52;20.88;;;2.20;97.10;;;;;;5091671;28;20028;-66
2021/11/28 05:41:06;;;;;;;179.30;23.17;;;2.20;97.40;;;;;;5091872;28;20103;-66
2021/11/28 05:43:33;;;;;;;51.70;16.13;;;2.20;97.40;;;;;;5091732;28;20024;-66
2021/11/28 05:45:58;;;;;;;58.83;15.18;;;2.20;97.60;;;;;;5091651;28;20043;-66
2021/11/28 05:48:24;;;;;;;51.80;15.57;;;2.20;97.60;;;;;;5091672;28;20051;-65
2021/11/28 05:50:50;;;;;;;95.50;15.48;;;2.30;97.50;;;;;;5091684;28;20046;-67
2021/11/28 05:53:16;;;;;;;105.70;19.00;;;2.30;97.60;;;;;;5091416;28;20360;-66
2021/11/28 05:55:43;;;;;;;92.25;18.92;;;2.30;97.50;;;;;;5091572;28;20024;-66
2021/11/28 05:58:10;;;;;;;43.28;14.63;;;2.40;97.40;;;;;;5091515;28;20103;-66
2021/11/28 06:00:36;;;;;;;45.38;15.85;;;2.40;97.90;;;;;;5093099;28;20105;-66
2021/11/28 06:03:02;;;;;;;40.25;15.48;;;2.40;98.20;;;;;;5095843;28;20028;-66
2021/11/28 06:05:28;;;;;;;60.00;16.90;;;2.50;98.30;;;;;;5095617;28;20032;-66
2021/11/28 06:07:53;;;;;;;182.18;25.08;;;2.50;98.70;;;;;;5095597;28;20442;-66
2021/11/28 06:10:19;;;;;;;79.15;30.42;;;2.60;99.10;;;;;;5095420;28;20386;-67
2021/11/28 06:12:45;;;;;;;87.07;31.42;;;2.70;99.10;;;;;;5095420;28;20077;-66
2021/11/28 06:15:11;;;;;;;84.55;34.30;;;2.80;99.30;;;;;;5095596;28;20420;-65
2021/11/28 06:17:37;;;;;;;106.03;33.90;;;2.90;99.00;;;;;;5095651;28;20024;-66
2021/11/28 06:20:05;;;;;;;133.25;32.95;;;3.00;99.00;;;;;;5095695;28;20390;-65
2021/11/28 06:22:30;;;;;;;54.22;29.90;;;3.10;99.10;;;;;;5095453;28;20023;-65
2021/11/28 06:24:56;;;;;;;85.78;28.45;;;3.20;99.00;;;;;;5095487;28;20342;-65
2021/11/28 06:27:22;;;;;;;156.20;30.27;;;3.30;98.50;;;;;;5095429;28;20020;-65
2021/11/28 06:29:48;;;;;;;63.35;24.80;;;3.40;98.20;;;;;;5095159;28;20035;-66
2021/11/28 06:32:15;;;;;;;96.63;25.52;;;3.40;98.40;;;;;;5095176;28;20020;-65
2021/11/28 06:34:41;;;;;;;110.50;25.80;;;3.50;97.80;;;;;;5094949;28;20093;-67
2021/11/28 06:37:06;;;;;;;132.15;25.85;;;3.50;98.00;;;;;;5095206;28;20032;-66
2021/11/28 06:39:32;;;;;;;32.25;17.75;;;3.50;98.00;;;;;;5095083;28;20024;-66
2021/11/28 06:41:58;;;;;;;39.13;16.40;;;3.50;98.60;;;;;;5095041;28;20032;-65
2021/11/28 06:44:24;;;;;;;80.40;21.83;;;3.60;99.20;;;;;;5094907;28;20081;-65
2021/11/28 06:46:49;;;;;;;35.78;17.00;;;3.70;99.40;;;;;;5094965;28;20062;-65
2021/11/28 06:49:15;;;;;;;49.13;16.35;;;3.80;98.90;;;;;;5094750;28;20016;-66
2021/11/28 06:51:41;;;;;;;40.55;15.23;;;3.80;99.00;;;;;;5094667;28;20490;-65
2021/11/28 06:54:06;;;;;;;46.33;16.77;;;3.90;99.20;;;;;;5094648;28;20056;-67
2021/11/28 06:56:32;;;;;;;80.32;20.23;;;4.00;99.30;;;;;;5094889;28;20039;-66
2021/11/28 06:58:58;;;;;;;51.63;18.77;;;4.10;99.20;;;;;;5094503;28;20081;-66
2021/11/28 07:01:23;;;;;;;159.48;32.08;;;4.10;99.20;;;;;;5094631;28;20392;-66
2021/11/28 07:03:49;;;;;;;96.05;30.42;;;4.20;98.90;;;;;;5094519;28;20099;-66
2021/11/28 07:06:15;;;;;;;95.35;28.88;;;4.30;98.10;;;;;;5095114;28;20519;-66
2021/11/28 07:08:40;;;;;;;85.72;27.80;;;4.30;97.90;;;;;;5094779;28;20584;-66
2021/11/28 07:11:06;;;;;;;94.03;26.58;;;4.30;97.50;;;;;;5094382;28;20024;-66
2021/11/28 07:13:32;;;;;;;94.60;31.52;;;4.20;97.90;;;;;;5093613;28;20028;-66
2021/11/28 07:15:58;;;;;;;74.53;29.52;;;4.30;97.80;;;;;;5094324;28;20038;-66
2021/11/28 07:18:24;;;;;;;116.15;31.10;;;4.30;97.80;;;;;;5094306;28;20021;-66
2021/11/28 07:20:49;;;;;;;83.60;29.60;;;4.30;98.00;;;;;;5094209;28;20024;-66
2021/11/28 07:23:15;;;;;;;55.97;23.95;;;4.40;97.90;;;;;;5094129;28;20020;-66
2021/11/28 07:25:41;;;;;;;75.35;25.05;;;4.40;98.40;;;;;;5094137;28;20024;-66
2021/11/28 07:28:07;;;;;;;72.72;25.50;;;4.50;98.70;;;;;;5094178;28;20024;-65
2021/11/28 07:30:32;;;;;;;59.20;25.27;;;4.60;98.60;;;;;;5094083;28;20016;-66
2021/11/28 07:32:59;;;;;;;64.70;23.42;;;4.60;98.60;;;;;;5093979;28;20378;-66
2021/11/28 07:35:24;;;;;;;56.15;20.48;;;4.70;98.80;;;;;;5094045;28;20123;-66
2021/11/28 07:37:51;;;;;;;68.88;23.25;;;4.80;98.90;;;;;;5093904;28;20442;-66
2021/11/28 07:40:17;;;;;;;83.18;32.88;;;4.90;98.70;;;;;;5093741;28;20056;-66
2021/11/28 07:42:43;;;;;;;96.32;42.25;;;4.90;98.10;;;;;;5093782;28;20368;-66
2021/11/28 07:45:10;;;;;;;93.82;48.00;;;4.90;97.60;;;;;;5092414;28;20574;-67
2021/11/28 07:47:36;;;;;;;102.60;41.58;;;4.90;97.60;;;;;;5093525;28;20384;-66
2021/11/28 07:50:04;;;;;;;84.15;37.80;;;4.90;98.10;;;;;;5093539;28;20095;-65
2021/11/28 07:52:29;;;;;;;73.20;35.13;;;5.00;98.50;;;;;;5093608;28;20432;-67
2021/11/28 07:54:55;;;;;;;70.70;25.70;;;5.00;98.70;;;;;;5093286;28;20052;-69
2021/11/28 07:57:21;;;;;;;48.40;21.27;;;5.10;98.80;;;;;;5093702;28;20028;-66
2021/11/28 07:59:47;;;;;;;50.28;16.80;;;5.20;98.70;;;;;;5093564;28;20058;-66
2021/11/28 08:02:18;;;;;;;56.70;15.63;;;5.30;98.40;;;;;;5093321;28;20127;-66
2021/11/28 08:04:45;;;;;;;50.88;13.00;;;5.30;97.60;;;;;;5093042;28;20386;-65
2021/11/28 08:07:11;;;;;;;18.95;10.23;;;5.30;97.80;;;;;;5093235;28;20024;-66
2021/11/28 08:09:36;;;;;;;20.70;10.25;;;5.30;97.90;;;;;;5092063;28;20477;-67
2021/11/28 08:12:03;;;;;;;24.20;10.23;;;5.40;98.00;;;;;;5093489;28;20352;-67
2021/11/28 08:14:29;;;;;;;37.00;10.95;;;5.40;98.20;;;;;;5093542;28;20043;-67
2021/11/28 08:16:55;;;;;;;48.22;11.52;;;5.50;98.00;;;;;;5093456;28;20478;-68
2021/11/28 08:19:21;;;;;;;29.95;10.73;;;5.50;98.20;;;;;;5093025;28;20036;-67
2021/11/28 08:21:47;;;;;;;19.45;10.85;;;5.60;98.40;;;;;;5092838;28;20042;-67
2021/11/28 08:24:13;;;;;;;22.90;11.50;;;5.70;98.40;;;;;;5091442;28;20105;-67
2021/11/28 08:26:40;;;;;;;30.67;16.35;;;5.80;98.50;;;;;;5092908;28;20467;-66
2021/11/28 08:29:06;;;;;;;43.47;17.73;;;5.90;98.00;;;;;;5093115;28;20368;-67
2021/11/28 08:31:33;;;;;;;107.93;21.10;;;5.90;98.10;;;;;;5092454;28;20020;-67
2021/11/28 08:33:59;;;;;;;24.45;15.18;;;6.00;98.00;;;;;;5092949;28;20459;-67
2021/11/28 08:36:25;;;;;;;26.17;16.15;;;6.10;98.30;;;;;;5092695;28;20081;-66
2021/11/28 08:38:55;;;;;;;32.47;18.23;;;6.10;98.30;;;;;;5092238;28;20053;-68
2021/11/28 08:41:22;;;;;;;32.70;19.52;;;6.30;97.50;;;;;;5092366;28;20051;-67
2021/11/28 08:43:50;;;;;;;62.33;22.17;;;6.30;97.50;;;;;;5092589;28;20386;-67
2021/11/28 08:46:18;;;;;;;28.60;18.27;;;6.30;97.10;;;;;;5092644;28;20032;-67
2021/11/28 08:48:44;;;;;;;24.60;15.57;;;6.30;96.70;;;;;;5092495;28;20031;-68
2021/11/28 08:51:10;;;;;;;27.58;14.18;;;6.30;96.70;;;;;;5092297;28;20379;-67
2021/11/28 08:53:36;;;;;;;27.13;15.30;;;6.30;97.20;;;;;;5092167;28;20080;-66
2021/11/28 08:56:03;;;;;;;26.25;14.73;;;6.40;96.60;;;;;;5092290;28;20028;-67
2021/11/28 08:58:29;;;;;;;40.67;15.23;;;6.40;96.50;;;;;;5092060;28;20055;-67
2021/11/28 09:00:55;;;;;;;21.63;12.63;;;6.50;96.70;;;;;;5090859;28;20033;-67
2021/11/28 09:03:21;;;;;;;18.58;11.55;;;6.50;97.40;;;;;;5092039;28;20089;-67
2021/11/28 09:05:47;;;;;;;20.00;11.82;;;6.60;97.90;;;;;;5092243;28;20032;-67
2021/11/28 09:08:13;;;;;;;22.27;12.60;;;6.80;97.90;;;;;;5090779;28;20027;-67
2021/11/28 09:10:41;;;;;;;26.38;12.55;;;6.90;97.50;;;;;;5092195;28;20045;-66
2021/11/28 09:13:07;;;;;;;21.17;12.10;;;7.00;97.30;;;;;;5092048;28;20481;-67
2021/11/28 09:15:33;;;;;;;34.92;13.45;;;7.10;96.90;;;;;;5092196;28;20024;-67
2021/11/28 09:18:07;;;;;;;21.67;12.43;;;7.20;96.70;;;;;;5092042;28;20024;-66
2021/11/28 09:20:34;;;;;;;25.65;13.00;;;7.20;96.80;;;;;;5091995;28;20032;-67
2021/11/28 09:25:27;;;;;;;24.42;13.70;;;7.30;96.40;;;;;;5091852;28;20482;-66
2021/11/28 09:27:54;;;;;;;22.55;11.48;;;7.40;96.30;;;;;;5091838;28;20028;-67
2021/11/28 09:30:23;;;;;;;43.70;14.02;;;7.40;96.50;;;;;;5091867;28;20375;-66
2021/11/28 09:32:50;;;;;;;102.57;19.73;;;7.50;96.10;;;;;;5091818;28;20020;-66
2021/11/28 09:35:15;;;;;;;22.70;14.07;;;7.50;95.00;;;;;;5091430;28;20024;-66
2021/11/28 09:37:41;;;;;;;25.08;14.85;;;7.50;94.90;;;;;;5091621;28;20081;-66
2021/11/28 09:40:08;;;;;;;51.63;17.50;;;7.50;94.70;;;;;;5091534;28;20036;-66
2021/11/28 09:42:37;;;;;;;64.55;17.25;;;7.40;94.20;;;;;;5091501;28;20069;-66
2021/11/28 09:45:05;;;;;;;23.80;13.25;;;7.30;94.30;;;;;;5091501;28;20034;-67
2021/11/28 09:47:33;;;;;;;23.52;13.30;;;7.30;94.70;;;;;;5091623;28;20024;-66
2021/11/28 09:50:03;;;;;;;22.25;13.68;;;7.30;95.00;;;;;;5091387;28;20023;-67
2021/11/28 09:52:29;;;;;;;25.25;12.38;;;7.40;95.10;;;;;;5091839;28;20031;-66
2021/11/28 09:55:00;;;;;;;19.25;11.30;;;7.40;95.30;;;;;;5091506;28;20509;-66
2021/11/28 09:57:28;;;;;;;18.00;10.80;;;7.50;95.50;;;;;;5091323;28;20144;-66
2021/11/28 09:59:56;;;;;;;18.83;11.07;;;7.60;95.70;;;;;;5091577;28;20415;-66
2021/11/28 10:02:21;;;;;;;20.50;12.35;;;7.70;95.50;;;;;;5091411;28;20064;-67
2021/11/28 10:04:47;;;;;;;18.45;10.93;;;7.80;95.20;;;;;;5091423;28;20062;-66
2021/11/28 10:07:14;;;;;;;24.15;11.95;;;7.80;95.30;;;;;;5091455;28;20067;-66
2021/11/28 10:09:40;;;;;;;20.15;11.85;;;7.90;95.40;;;;;;5091397;28;20103;-67
2021/11/28 10:12:17;;;;;;;20.38;11.85;;;8.00;95.60;;;;;;5091221;28;20020;-66
2021/11/28 10:14:47;;;;;;;22.13;12.48;;;8.10;95.50;;;;;;5091108;28;20031;-66
2021/11/28 10:17:15;;;;;;;22.95;14.00;;;8.20;95.50;;;;;;5091147;28;20050;-66
2021/11/28 10:19:41;;;;;;;23.90;14.80;;;8.30;94.90;;;;;;5090879;28;20020;-66
2021/11/28 10:22:06;;;;;;;21.70;13.15;;;8.30;94.60;;;;;;5090827;28;20094;-66
2021/11/28 10:24:33;;;;;;;29.85;15.40;;;8.30;94.60;;;;;;5090674;28;20469;-66
2021/11/28 10:27:10;;;;;;;21.73;14.48;;;8.40;94.20;;;;;;5091032;28;20091;-66
2021/11/28 10:29:41;;;;;;;19.77;12.30;;;8.40;93.90;;;;;;5091303;28;20093;-67
2021/11/28 10:32:09;;;;;;;19.67;12.23;;;8.40;94.40;;;;;;5091011;28;20182;-67
2021/11/28 10:34:42;;;;;;;15.70;10.15;;;8.40;94.40;;;;;;5090741;28;20100;-67
2021/11/28 10:37:18;;;;;;;17.20;10.40;;;8.50;94.50;;;;;;5090740;28;20032;-65
2021/11/28 10:39:49;;;;;;;22.60;14.50;;;8.50;94.50;;;;;;5091497;28;20032;-67
2021/11/28 10:42:21;;;;;;;23.23;14.45;;;8.60;93.70;;;;;;5091052;28;20027;-65
2021/11/28 10:45:15;;;;;;;23.98;14.48;;;8.60;93.60;;;;;;5090958;28;20024;-66
2021/11/28 10:47:50;;;;;;;19.55;12.10;;;8.60;93.70;;;;;;5092814;28;20401;-67
2021/11/28 10:50:19;;;;;;;22.35;13.93;;;8.60;94.10;;;;;;5094690;28;20012;-66
2021/11/28 10:53:10;;;;;;;23.83;15.00;;;8.60;93.90;;;;;;5094718;28;20047;-66
2021/11/28 10:55:42;;;;;;;24.35;14.85;;;8.70;94.00;;;;;;5094787;28;20601;-66
2021/11/28 10:58:20;;;;;;;26.23;15.77;;;8.80;94.10;;;;;;5094864;28;20107;-67
2021/11/28 11:00:46;;;;;;;25.85;14.70;;;8.80;94.10;;;;;;5094653;28;20028;-66
2021/11/28 11:03:13;;;;;;;26.75;15.77;;;8.90;94.00;;;;;;5094964;28;20495;-67
2021/11/28 11:05:38;;;;;;;24.60;15.65;;;8.90;94.00;;;;;;5094959;28;20020;-66
2021/11/28 11:08:05;;;;;;;25.08;15.98;;;8.90;93.70;;;;;;5094884;28;20546;-66
2021/11/28 11:10:34;;;;;;;25.15;15.38;;;8.90;93.60;;;;;;5094516;28;20039;-67
2021/11/28 11:13:02;;;;;;;23.83;14.82;;;8.90;93.50;;;;;;5094621;28;20055;-66
2021/11/28 11:15:47;;;;;;;21.73;13.70;;;8.90;93.40;;;;;;5094480;28;20475;-67
2021/11/28 11:18:18;;;;;;;19.52;11.82;;;8.90;93.40;;;;;;5094364;28;20035;-66
2021/11/28 11:20:47;;;;;;;21.50;13.13;;;8.90;93.30;;;;;;5094307;28;20127;-66
2021/11/28 11:23:42;;;;;;;17.95;11.55;;;8.80;92.90;;;;;;5094207;28;20024;-66
2021/11/28 11:26:16;;;;;;;20.90;12.77;;;8.70;92.90;;;;;;5094170;28;20157;-66
2021/11/28 11:28:57;;;;;;;19.45;12.05;;;8.70;92.90;;;;;;5094102;28;20024;-66
2021/11/28 11:31:24;;;;;;;16.92;10.38;;;8.60;93.00;;;;;;5094506;28;20396;-67
2021/11/28 11:33:49;;;;;;;17.20;10.43;;;8.60;93.40;;;;;;5094157;28;20111;-67
2021/11/28 11:36:15;;;;;;;17.73;10.85;;;8.60;93.40;;;;;;5094057;28;20096;-66
2021/11/28 11:38:41;;;;;;;19.30;10.98;;;8.60;93.40;;;;;;5093821;28;20044;-66
2021/11/28 11:41:07;;;;;;;19.52;11.70;;;8.70;93.50;;;;;;5093957;28;20032;-67
2021/11/28 11:43:37;;;;;;;19.63;12.07;;;8.70;93.30;;;;;;5093556;28;20016;-66
2021/11/28 11:46:08;;;;;;;18.17;11.45;;;8.70;93.20;;;;;;5093268;28;20493;-66
2021/11/28 11:48:34;;;;;;;18.25;10.70;;;8.70;93.30;;;;;;5093573;28;20027;-66
2021/11/28 11:51:02;;;;;;;18.80;11.20;;;8.70;93.30;;;;;;5093522;28;20016;-66
2021/11/28 11:53:28;;;;;;;19.42;11.52;;;8.70;93.20;;;;;;5093444;28;20036;-68
2021/11/28 11:55:54;;;;;;;17.08;10.18;;;8.70;93.10;;;;;;5092318;28;20085;-66
2021/11/28 11:58:33;;;;;;;18.25;10.80;;;8.70;93.20;;;;;;5093035;28;20028;-66
2021/11/28 12:01:02;;;;;;;15.48;10.40;;;8.70;93.20;;;;;;5093364;28;20020;-66
2021/11/28 12:03:41;;;;;;;14.25;9.55;;;8.80;93.20;;;;;;5093354;28;20028;-66
2021/11/28 12:06:07;;;;;;;18.52;10.90;;;8.80;93.20;;;;;;5093206;28;20077;-67
2021/11/28 12:08:33;;;;;;;16.88;11.07;;;8.80;93.10;;;;;;5093266;28;20024;-66
2021/11/28 12:11:02;;;;;;;15.77;9.65;;;8.80;92.80;;;;;;5093308;28;20020;-67
2021/11/28 12:13:28;;;;;;;14.48;9.68;;;8.80;92.70;;;;;;5093142;28;20028;-67
2021/11/28 12:16:04;;;;;;;16.35;10.13;;;8.70;92.70;;;;;;5093136;28;20095;-67
2021/11/28 12:18:35;;;;;;;14.82;9.98;;;8.60;92.60;;;;;;5093490;28;20454;-66
2021/11/28 12:21:30;;;;;;;16.58;9.65;;;8.60;92.60;;;;;;5092999;28;20066;-67
2021/11/28 12:24:05;;;;;;;14.45;9.27;;;8.50;92.60;;;;;;5085614;28;20114;-67
2021/11/28 12:26:31;;;;;;;16.20;9.93;;;8.40;92.70;;;;;;5092981;28;20020;-67
2021/11/28 12:29:08;;;;;;;15.27;9.45;;;8.40;92.70;;;;;;5093389;28;20082;-66
2021/11/28 12:31:46;;;;;;;15.10;9.98;;;8.40;92.70;;;;;;5092688;28;20487;-67
2021/11/28 12:34:16;;;;;;;19.42;11.52;;;8.30;92.70;;;;;;5092980;28;20413;-67
2021/11/28 12:36:55;;;;;;;17.25;11.02;;;8.30;92.60;;;;;;5092899;28;20099;-65
2021/11/28 12:39:24;;;;;;;18.73;11.98;;;8.20;92.60;;;;;;5092863;28;20028;-66
2021/11/28 12:42:03;;;;;;;17.25;11.45;;;8.20;92.60;;;;;;5092641;28;20044;-66
2021/11/28 12:44:51;;;;;;;17.95;12.30;;;8.20;92.80;;;;;;5092711;28;20023;-66